Aberdeen, KY

4:35 AM CST on February 07, 2016 (GMT -0600)
Snowball Hill | | Change Station
CLOSE
Current Station
Personal Weather Station
Location: Rosine, KY
Elevation: 548 ft
Nearby Weather Stations

Elev 548 ft 37.42 °N, 86.74 °W | Updated 5 minutes ago

Clear
Clear
22.8 °F
Feels Like 23 °F
N
0.0
Wind Variable Wind from South

Today
High -- | Low -- °F
--% Chance of Precip.
Yesterday
High -- | Low -- °F
Precip. -- in
Pressure 30.21 in
Visibility 10.0 miles
Clouds Clear
Windchill 23 °F
Dew Point 22 °F
Humidity 98%
Rainfall 0.00 in
Snow Depth Not available.
6:44 AM 5:17 PM
Waning Crescent, 2% visible
METAR KBWG 070953Z AUTO 00000KT 10SM CLR M03/M04 A3020 RMK AO2 SLP229 T10331044
Pressure 30.21 in
Visibility 10.0 miles
Clouds Clear
Windchill 23 °F
Dew Point 22 °F
Humidity 98%
Rainfall 0.00 in
Snow Depth Not available.
6:44 AM 5:17 PM
Waning Crescent, 2% visible
METAR KBWG 070953Z AUTO 00000KT 10SM CLR M03/M04 A3020 RMK AO2 SLP229 T10331044

10-Day Weather Forecast

Almanac

Astronomy

Feb. 07, 2016 Rise Set
Actual Time
Civil Twilight
Nautical Twilight
Astronomical Twilight
Moon
Length of Visible Light
Length of Day
Tomorrow will be .
, % of the Moon is Illuminated

Today's Extremes

State Highs State Lows

Community

WunderPhotos

Upload Photos

1,891,171 photos uploaded!

WunderBlog® & News

Nearby

Air Quality

  Air Quality AQ Index Pollutant
Not available.

Snow Depth

Station Depth Elevation

Earthquake Activity

City Distance Mag. Time & Date
Minimum magnitude displayed is 2.5.

Coastal Water Temperatures

Place Temperature

Stations

Nearby Weather Stations

Station Location Temp. Windchill Dew Point Humidity Wind Precip. Elev Updated Type
                   

Watches & Warnings

There are currently no watches in effect.